Flight Track Log - Related Links

Times and Time Zones

All times are in EDT time to prevent confusion due to time zone crossing. See the SKW4497 flight status page for this flight to view local times or setup timezone preferences in your user account.

Time Position Orientation Groundspeed Altitude Reporting Facility
EDT Latitude Longitude Course Direction KTS MPH feet Rate Location/Type
Sun 11:46:34 AM 40.7583 -111.9644 150° Southeast 174 200 4,900  Level Salt Lake Center
Sun 11:47:17 AM 40.7217 -111.9631 178° South 183 211 6,000 1,531 Climbing Salt Lake Center
Sun 11:48:12 AM 40.6628 -111.9561 175° South 233 268 7,400 1,878 Climbing Salt Lake Center
Sun 11:49:00 AM 40.4356 -111.9500 180° South  Level FlightAware Approximate
Sun 11:49:12 AM 40.5833 -111.9392 171° South 278 320 9,600  Level Salt Lake Center
Sun 11:50:00 AM 40.3212 -111.9333 180° South  Level FlightAware Approximate
Sun 11:50:16 AM 40.5058 -111.9067 162° South 299 344 11,800  Level Salt Lake Center
Sun 11:51:00 AM 40.2128 -111.8929 150° Southeast  Level FlightAware Approximate
Sun 11:51:17 AM 40.4264 -111.8583 155° Southeast 313 360 14,100  Level Salt Lake Center
Sun 11:52:19 AM 40.3428 -111.8089 156° South 330 380 16,300 1,984 Climbing Salt Lake Center
Sun 11:53:21 AM 40.2561 -111.7581 156° South 342 394 18,200 2,049 Climbing Salt Lake Center
Sun 11:54:22 AM 40.1497 -111.6947 156° South 352 405 20,500 1,951 Climbing Salt Lake Center
Sun 11:55:24 AM 40.0575 -111.6406 156° South 365 420 22,200 1,548 Climbing Salt Lake Center
Sun 11:56:26 AM 39.9694 -111.5881 155° Southeast 364 419 23,700 1,659 Climbing Salt Lake Center
Sun 11:57:27 AM 39.8581 -111.5250 157° South 381 438 25,600 1,659 Climbing Salt Lake Center
Sun 11:58:29 AM 39.7683 -111.4728 156° South 384 442 27,100 1,258 Climbing Salt Lake Center
Sun 11:59:31 AM 39.6700 -111.4158 156° South 387 445 28,200 1,024 Climbing Salt Lake Center
Sun 12:00:32 PM 39.5664 -111.3558 156° South 404 465 29,200 976 Climbing Salt Lake Center
Sun 12:01:34 PM 39.4375 -111.2819 156° South 423 487 30,200 871 Climbing Salt Lake Center
Sun 12:02:36 PM 39.3275 -111.2183 156° South 433 498 31,000 732 Climbing Salt Lake Center
Sun 12:03:37 PM 39.2172 -111.1544 156° South 446 513 31,700 829 Climbing Salt Lake Center
Sun 12:04:39 PM 39.0869 -111.0806 156° South 456 525 32,700 968 Climbing Salt Lake Center
Sun 12:05:41 PM 38.9747 -111.0158 156° South 459 528 33,700 878 Climbing Salt Lake Center
Sun 12:06:42 PM 38.8689 -110.9558 156° South 454 522 34,500 829 Climbing Salt Lake Center
Sun 12:07:44 PM 38.7364 -110.8814 156° South 453 521 35,400 677 Climbing Salt Lake Center
Sun 12:08:46 PM 38.6236 -110.8186 156° South 459 528 35,900 537 Climbing Salt Lake Center
Sun 12:09:47 PM 38.4922 -110.7422 156° South 462 532 36,500 537 Climbing Salt Lake Center
Sun 12:10:49 PM 38.4036 -110.6403 138° Southeast 449 517 37,000 390 Climbing Salt Lake Center
Sun 12:11:04 PM 38.3825 -110.5944 120° Southeast 448 516 37,000  Level Denver Center
Sun 12:12:06 PM 38.3375 -110.4622 113° Southeast 431 496 37,000  Level Denver Center
Sun 12:13:08 PM 38.2828 -110.3033 114° Southeast 438 504 37,000  Level Denver Center
Sun 12:14:10 PM 38.2372 -110.1678 113° Southeast 435 501 37,000  Level Denver Center
Sun 12:15:12 PM 38.1842 -110.0119 113° Southeast 431 496 37,000  Level Denver Center
Sun 12:16:26 PM 38.1319 -109.8600 114° Southeast 423 487 37,000  Level Denver Center
Sun 12:17:28 PM 38.0806 -109.7100 113° Southeast 418 481 37,000  Level Denver Center
Sun 12:18:30 PM 38.0347 -109.5775 114° Southeast 412 474 37,000  Level Denver Center
Sun 12:19:32 PM 37.9833 -109.4314 114° Southeast 407 468 37,000  Level Denver Center
Sun 12:20:34 PM 37.9392 -109.3061 114° Southeast 406 467 37,000  Level Denver Center
Sun 12:21:36 PM 37.8944 -109.1781 114° Southeast 413 475 37,000  Level Denver Center
Sun 12:22:38 PM 37.8406 -109.0250 114° Southeast 424 488 37,000  Level Denver Center
Sun 12:23:40 PM 37.7956 -108.8950 114° Southeast 422 486 37,000  Level Denver Center
Sun 12:24:42 PM 37.7475 -108.7392 111° Southeast 424 488 37,000  Level Denver Center
Sun 12:25:44 PM 37.7058 -108.6083 112° Southeast 421 484 37,000  Level Denver Center
Sun 12:26:47 PM 37.6578 -108.4569 112° Southeast 417 480 37,000  Level Denver Center
Sun 12:27:49 PM 37.6167 -108.3300 112° Southeast 410 472 37,000  Level Denver Center
Sun 12:28:51 PM 37.5689 -108.1806 112° Southeast 410 472 37,000  Level Denver Center
Sun 12:29:53 PM 37.5272 -108.0561 113° Southeast 404 465 37,000  Level Denver Center
Sun 12:30:55 PM 37.4683 -107.9150 118° Southeast 407 468 37,000  Level Denver Center
Sun 12:31:57 PM 37.4183 -107.7936 117° Southeast 406 467 37,000  Level Denver Center
Sun 12:32:59 PM 37.3672 -107.6711 118° Southeast 412 474 37,000  Level Denver Center
Sun 12:34:01 PM 37.3069 -107.5258 118° Southeast 417 480 37,000  Level Denver Center
Sun 12:35:03 PM 37.2561 -107.4011 117° Southeast 418 481 37,000  Level Denver Center
Sun 12:36:05 PM 37.1958 -107.2578 118° Southeast 416 479 37,000  Level Denver Center
Sun 12:37:07 PM 37.1439 -107.1350 118° Southeast 416 479 37,000  Level Denver Center
Sun 12:38:09 PM 37.0847 -106.9933 118° Southeast 413 475 37,000  Level Denver Center
Sun 12:39:11 PM 37.0328 -106.8736 118° Southeast 408 470 37,000  Level Denver Center
Sun 12:40:13 PM 36.9731 -106.7331 118° Southeast 409 471 37,000  Level Denver Center
Sun 12:41:15 PM 36.9233 -106.6133 117° Southeast 407 468 37,000  Level Denver Center
Sun 12:42:17 PM 36.8614 -106.4694 118° Southeast 416 479 37,000  Level Denver Center
Sun 12:43:19 PM 36.8081 -106.3444 118° Southeast 423 487 37,000  Level Denver Center
Sun 12:44:21 PM 36.7533 -106.2194 119° Southeast 426 490 37,000  Level Denver Center
Sun 12:45:23 PM 36.6956 -106.0847 118° Southeast 428 493 37,000  Level Denver Center
Sun 12:46:25 PM 36.6397 -105.9561 118° Southeast 426 490 37,000  Level Denver Center
Sun 12:46:46 PM 36.6111 -105.8900 118° Southeast 424 488 37,000  Level Albuquerque Center
Sun 12:47:48 PM 36.5625 -105.7783 118° Southeast 421 484 37,000  Level Albuquerque Center
Sun 12:48:50 PM 36.5056 -105.6492 119° Southeast 423 487 37,000  Level Albuquerque Center
Sun 12:49:52 PM 36.4422 -105.5044 119° Southeast 420 483 37,000  Level Albuquerque Center
Sun 12:50:53 PM 36.3836 -105.3756 119° Southeast 415 478 37,000  Level Albuquerque Center
Sun 12:51:55 PM 36.3267 -105.2511 120° Southeast 412 474 37,000  Level Albuquerque Center
Sun 12:52:57 PM 36.2717 -105.1244 118° Southeast 412 474 37,000  Level Albuquerque Center
Sun 12:53:59 PM 36.2161 -105.0000 119° Southeast 410 472 37,000  Level Albuquerque Center
Sun 12:55:01 PM 36.1589 -104.8761 120° Southeast 410 472 37,000  Level Albuquerque Center
Sun 12:56:03 PM 36.1042 -104.7506 118° Southeast 410 472 37,000  Level Albuquerque Center
Sun 12:57:05 PM 36.0361 -104.6047 120° Southeast 415 478 37,000  Level Albuquerque Center
Sun 12:58:07 PM 35.9781 -104.4781 119° Southeast 418 481 37,000  Level Albuquerque Center
Sun 12:59:09 PM 35.9197 -104.3517 120° Southeast 419 482 37,000  Level Albuquerque Center
Sun 01:00:11 PM 35.8606 -104.2233 120° Southeast 423 487 37,000  Level Albuquerque Center
Sun 01:01:13 PM 35.8028 -104.0944 119° Southeast 424 488 37,000  Level Albuquerque Center
Sun 01:02:15 PM 35.7428 -103.9656 120° Southeast 426 490 37,000  Level Albuquerque Center
Sun 01:03:17 PM 35.6828 -103.8358 120° Southeast 429 494 37,000  Level Albuquerque Center
Sun 01:04:19 PM 35.6228 -103.7053 119° Southeast 432 497 37,000  Level Albuquerque Center
Sun 01:05:21 PM 35.5619 -103.5744 120° Southeast 434 499 37,000  Level Albuquerque Center
Sun 01:06:22 PM 35.4894 -103.4189 120° Southeast 441 507 37,000  Level Albuquerque Center
Sun 01:07:24 PM 35.4283 -103.2883 120° Southeast 438 504 37,000  Level Albuquerque Center
Sun 01:08:26 PM 35.3650 -103.1586 121° Southeast 439 505 37,000  Level Albuquerque Center
Sun 01:09:28 PM 35.3033 -103.0272 120° Southeast 440 506 37,000  Level Albuquerque Center
Sun 01:10:30 PM 35.2411 -102.8983 121° Southeast 438 504 37,000  Level Albuquerque Center
Sun 01:11:32 PM 35.1792 -102.7714 121° Southeast 437 503 37,000  Level Albuquerque Center
Sun 01:12:34 PM 35.1178 -102.6428 120° Southeast 439 505 37,000  Level Albuquerque Center
Sun 01:13:36 PM 35.0553 -102.5147 121° Southeast 441 507 37,000  Level Albuquerque Center
Sun 01:14:38 PM 34.9794 -102.3603 121° Southeast 444 511 37,000  Level Albuquerque Center
Sun 01:15:40 PM 34.9164 -102.2297 120° Southeast 447 514 37,000  Level Albuquerque Center
Sun 01:16:42 PM 34.8533 -102.0989 120° Southeast 450 518 37,000  Level Albuquerque Center
Sun 01:17:44 PM 34.7889 -101.9686 121° Southeast 453 521 37,000  Level Albuquerque Center
Sun 01:18:46 PM 34.7256 -101.8378 120° Southeast 453 521 37,000  Level Albuquerque Center
Sun 01:19:48 PM 34.6492 -101.6817 121° Southeast 452 520 37,000  Level Albuquerque Center
Sun 01:20:50 PM 34.5861 -101.5544 121° Southeast 447 514 37,000  Level Albuquerque Center
Sun 01:21:52 PM 34.5250 -101.4311 121° Southeast 436 502 37,000  Level Albuquerque Center
Sun 01:22:54 PM 34.4650 -101.3119 121° Southeast 424 488 37,000  Level Albuquerque Center
Sun 01:23:56 PM 34.4028 -101.1903 122° Southeast 424 488 37,000  Level Albuquerque Center
Sun 01:24:58 PM 34.3275 -101.0386 121° Southeast 436 502 37,000  Level Albuquerque Center
Sun 01:26:00 PM 34.2622 -100.9089 121° Southeast 446 513 37,000  Level Albuquerque Center
Sun 01:27:02 PM 34.1972 -100.7819 122° Southeast 448 516 37,000  Level Albuquerque Center
Sun 01:28:10 PM 34.1194 -100.6297 122° Southeast 446 513 37,000  Level Fort Worth Center
Sun 01:29:10 PM 34.0697 -100.5325 122° Southeast 440 506 37,000  Level Fort Worth Center
Sun 01:30:10 PM 33.9919 -100.3844 122° Southeast 440 506 37,000  Level Fort Worth Center
Sun 01:31:10 PM 33.9303 -100.2547 120° Southeast 440 506 37,000  Level Fort Worth Center
Sun 01:32:10 PM 33.8661 -100.1350 123° Southeast 440 506 37,000  Level Fort Worth Center
Sun 01:33:10 PM 33.8019 -100.0106 122° Southeast 440 506 37,000  Level Fort Worth Center
Sun 01:34:10 PM 33.7356 -99.8861 123° Southeast 440 506 37,000  Level Fort Worth Center
Sun 01:35:10 PM 33.6714 -99.7594 121° Southeast 445 512 37,000  Level Fort Worth Center
Sun 01:36:10 PM 33.6047 -99.6306 122° Southeast 445 512 37,000  Level Fort Worth Center
Sun 01:37:10 PM 33.5381 -99.5067 123° Southeast 445 512 37,000  Level Fort Worth Center
Sun 01:38:10 PM 33.4692 -99.3806 123° Southeast 450 518 37,000  Level Fort Worth Center
Sun 01:39:11 PM 33.4022 -99.2522 122° Southeast 450 518 37,000  Level Fort Worth Center
Sun 01:40:10 PM 33.3372 -99.1242 121° Southeast 450 518 37,000  Level Fort Worth Center
Sun 01:41:10 PM 33.2681 -98.9961 123° Southeast 450 518 37,000  Level Fort Worth Center
Sun 01:42:10 PM 33.1964 -98.8681 124° Southeast 456 525 37,000  Level Fort Worth Center
Sun 01:43:10 PM 33.1289 -98.7381 122° Southeast 456 525 37,000  Level Fort Worth Center
Sun 01:44:10 PM 33.0594 -98.6106 123° Southeast 462 532 37,000  Level Fort Worth Center
Sun 01:45:10 PM 32.9875 -98.4833 124° Southeast 462 532 37,000  Level Fort Worth Center
Sun 01:46:10 PM 32.9278 -98.3689 122° Southeast 462 532 37,000  Level Fort Worth Center
Sun 01:47:10 PM 32.8494 -98.2244 123° Southeast 462 532 37,000  Level Fort Worth Center
Sun 01:48:10 PM 32.7856 -98.1078 123° Southeast 462 532 37,000  Level Fort Worth Center
Sun 01:49:10 PM 32.7006 -97.9689 126° Southeast 462 532 37,000  Level Fort Worth Center
Sun 01:50:10 PM 32.6217 -97.8697 133° Southeast 462 532 37,000  Level Fort Worth Center
Sun 01:51:10 PM 32.5239 -97.7508 134° Southeast 462 532 37,000  Level Fort Worth Center
Sun 01:52:10 PM 32.4469 -97.6497 132° Southeast 462 532 37,000  Level Fort Worth Center
Sun 01:53:10 PM 32.3489 -97.5314 134° Southeast 457 526 37,000  Level Fort Worth Center
Sun 01:54:10 PM 32.2739 -97.4356 133° Southeast 452 520 37,000  Level Fort Worth Center
Sun 01:55:10 PM 32.1778 -97.3175 134° Southeast 445 512 37,000  Level Fort Worth Center
Sun 01:56:10 PM 32.1047 -97.2294 134° Southeast 445 512 37,000  Level Fort Worth Center
Sun 01:57:10 PM 32.0147 -97.1094 131° Southeast 439 505 37,000  Level Fort Worth Center
Sun 01:58:10 PM 31.9267 -97.0094 136° Southeast 439 505 37,000  Level Fort Worth Center
Sun 01:59:10 PM 31.8492 -96.9119 133° Southeast 439 505 37,000  Level Fort Worth Center
Sun 02:00:10 PM 31.7631 -96.8075 134° Southeast 444 511 37,000 -710 Level Fort Worth Center
Sun 02:02:16 PM 31.5697 -96.5728 134° Southeast 465 535 34,800 -1,691 Descending Houston Center
Sun 02:03:18 PM 31.4608 -96.5033 151° Southeast 448 516 31,700 -3,000 Descending Houston Center
Sun 02:04:20 PM 31.3494 -96.5217 188° South 400 460 28,600 -2,516 Descending Houston Center
Sun 02:05:22 PM 31.2444 -96.5444 191° South 382 440 26,500 -1,742 Descending Houston Center
Sun 02:06:24 PM 31.1464 -96.5636 189° South 356 410 25,000 -1,200 Descending Houston Center
Sun 02:07:27 PM 31.0397 -96.5564 177° South 384 442 24,000 -480 Descending Houston Center
Sun 02:08:29 PM 30.9558 -96.4717 139° Southeast 409 471 24,000 -919 Level Houston Center
Sun 02:09:31 PM 30.8625 -96.3619 135° Southeast 404 465 22,100 -1,065 Descending Houston Center
Sun 02:10:33 PM 30.7889 -96.2697 133° Southeast 390 449 21,800 -1,548 Descending Houston Center
Sun 02:11:35 PM 30.7122 -96.1781 134° Southeast 390 449 18,900 -2,613 Descending Houston Center
Sun 02:12:37 PM 30.6431 -96.0914 133° Southeast 367 422 16,400 -2,579 Descending Houston Center
Sun 02:13:22 PM 30.5892 -96.0292 135° Southeast 340 391 14,300 -2,710 Descending Houston Center
Sun 02:13:39 PM 30.5672 -96.0028 134° Southeast 345 397 13,600 -2,418 Descending Houston Center
Sun 02:14:29 PM 30.5144 -95.9408 135° Southeast 334 384 11,600 -1,892 Descending Houston Center
Sun 02:15:30 PM 30.4556 -95.8675 133° Southeast 294 338 10,100 -1,171 Descending Houston Center
Sun 02:16:32 PM 30.3961 -95.8092 140° Southeast 293 337 9,200 -1,317 Descending Houston Center
Sun 02:17:33 PM 30.3064 -95.8172 184° South 307 353 7,400 -1,658 Descending Houston Center
Sun 02:17:48 PM 30.2994 -95.8156 168° South 307 353 7,100 -1,258 Descending Houston Center
Sun 02:18:35 PM 30.2261 -95.7853 160° South 284 327 6,100 -1,065 Descending Houston Center
Sun 02:18:50 PM 30.2236 -95.7836 150° Southeast 295 339 6,000 -1,180 Descending Houston Center
Sun 02:19:36 PM 30.1581 -95.7522 158° South 277 319 4,900 -1,452 Descending Houston Center
Sun 02:19:52 PM 30.1383 -95.7439 160° South 278 320 4,500 -1,180 Descending Houston Center
Sun 02:20:37 PM 30.0897 -95.7144 152° Southeast 250 288 3,700 -968 Descending Houston Center
Sun 02:20:54 PM 30.0825 -95.7014 123° Southeast 250 288 3,500 -677 Descending Houston Center
Sun 02:21:39 PM 30.0564 -95.6483 120° Southeast 231 266 3,000 -484 Descending Houston Center
Sun 02:21:56 PM 30.0533 -95.6347 105° East 237 273 3,000  Level Houston Center
Sun 02:22:34 PM 30.0325 -95.5908 119° Southeast 216 249 3,000  Level Houston Center
Sun 02:22:58 PM 30.0256 -95.5731 114° Southeast 224 258 3,000  Level Houston Center

Login

Don't have an account? Register now (free) for customized features, flight alerts, and more!